sensor_id;sensor_type;location;lat;lon;timestamp;P1;durP1;ratioP1;P2;durP2;ratioP2
57325;SDS011;43161;50.950;18.224;2023-02-18T00:00:07;4.10;;;1.10;;
57325;SDS011;43161;50.950;18.224;2023-02-18T00:02:36;7.10;;;1.20;;
57325;SDS011;43161;50.950;18.224;2023-02-18T00:05:02;4.70;;;1.00;;
57325;SDS011;43161;50.950;18.224;2023-02-18T00:07:28;3.80;;;1.20;;
57325;SDS011;43161;50.950;18.224;2023-02-18T00:09:54;3.30;;;0.80;;
57325;SDS011;43161;50.950;18.224;2023-02-18T00:12:20;3.80;;;0.90;;
57325;SDS011;43161;50.950;18.224;2023-02-18T00:14:45;3.80;;;0.90;;
57325;SDS011;43161;50.950;18.224;2023-02-18T00:17:11;3.50;;;0.80;;
57325;SDS011;43161;50.950;18.224;2023-02-18T00:19:37;5.20;;;0.80;;
57325;SDS011;43161;50.950;18.224;2023-02-18T00:22:02;5.30;;;0.80;;
57325;SDS011;43161;50.950;18.224;2023-02-18T00:24:28;3.90;;;0.80;;
57325;SDS011;43161;50.950;18.224;2023-02-18T00:26:54;5.50;;;1.00;;
57325;SDS011;43161;50.950;18.224;2023-02-18T00:29:19;2.60;;;0.80;;
57325;SDS011;43161;50.950;18.224;2023-02-18T00:31:45;4.50;;;0.80;;
57325;SDS011;43161;50.950;18.224;2023-02-18T00:34:11;3.00;;;0.70;;
57325;SDS011;43161;50.950;18.224;2023-02-18T00:36:37;4.00;;;0.80;;
57325;SDS011;43161;50.950;18.224;2023-02-18T00:39:04;2.00;;;0.60;;
57325;SDS011;43161;50.950;18.224;2023-02-18T00:41:31;3.40;;;0.90;;
57325;SDS011;43161;50.950;18.224;2023-02-18T00:43:58;4.30;;;0.90;;
57325;SDS011;43161;50.950;18.224;2023-02-18T00:46:24;3.70;;;0.80;;
57325;SDS011;43161;50.950;18.224;2023-02-18T00:48:51;4.40;;;0.80;;
57325;SDS011;43161;50.950;18.224;2023-02-18T00:51:17;4.40;;;1.10;;
57325;SDS011;43161;50.950;18.224;2023-02-18T00:53:43;4.70;;;1.00;;
57325;SDS011;43161;50.950;18.224;2023-02-18T00:56:09;4.60;;;1.00;;
57325;SDS011;43161;50.950;18.224;2023-02-18T00:58:35;5.70;;;0.90;;
57325;SDS011;43161;50.950;18.224;2023-02-18T01:01:02;5.60;;;1.10;;
57325;SDS011;43161;50.950;18.224;2023-02-18T01:03:28;3.80;;;1.10;;
57325;SDS011;43161;50.950;18.224;2023-02-18T01:05:54;7.40;;;1.10;;
57325;SDS011;43161;50.950;18.224;2023-02-18T01:08:20;4.80;;;1.10;;
57325;SDS011;43161;50.950;18.224;2023-02-18T01:10:47;5.20;;;1.00;;
57325;SDS011;43161;50.950;18.224;2023-02-18T01:13:14;3.60;;;1.10;;
57325;SDS011;43161;50.950;18.224;2023-02-18T01:15:41;4.60;;;0.90;;
57325;SDS011;43161;50.950;18.224;2023-02-18T01:18:07;4.70;;;1.10;;
57325;SDS011;43161;50.950;18.224;2023-02-18T01:20:34;4.30;;;0.90;;
57325;SDS011;43161;50.950;18.224;2023-02-18T01:23:00;3.00;;;0.80;;
57325;SDS011;43161;50.950;18.224;2023-02-18T01:25:26;3.90;;;0.90;;
57325;SDS011;43161;50.950;18.224;2023-02-18T01:27:52;3.30;;;0.90;;
57325;SDS011;43161;50.950;18.224;2023-02-18T01:30:18;4.20;;;1.00;;
57325;SDS011;43161;50.950;18.224;2023-02-18T01:32:45;5.80;;;0.90;;
57325;SDS011;43161;50.950;18.224;2023-02-18T01:35:12;5.90;;;1.10;;
57325;SDS011;43161;50.950;18.224;2023-02-18T01:37:39;5.10;;;0.90;;
57325;SDS011;43161;50.950;18.224;2023-02-18T01:40:05;3.70;;;1.00;;
57325;SDS011;43161;50.950;18.224;2023-02-18T01:42:32;6.30;;;0.80;;
57325;SDS011;43161;50.950;18.224;2023-02-18T01:47:56;4.80;;;1.00;;
57325;SDS011;43161;50.950;18.224;2023-02-18T01:50:21;5.30;;;1.10;;
57325;SDS011;43161;50.950;18.224;2023-02-18T01:52:47;4.50;;;0.90;;
57325;SDS011;43161;50.950;18.224;2023-02-18T01:55:13;3.40;;;0.80;;
57325;SDS011;43161;50.950;18.224;2023-02-18T01:57:39;5.20;;;0.90;;
57325;SDS011;43161;50.950;18.224;2023-02-18T02:00:09;2.20;;;0.70;;
57325;SDS011;43161;50.950;18.224;2023-02-18T02:02:38;2.10;;;0.70;;
57325;SDS011;43161;50.950;18.224;2023-02-18T02:05:06;2.80;;;0.80;;
57325;SDS011;43161;50.950;18.224;2023-02-18T02:07:32;4.40;;;0.70;;
57325;SDS011;43161;50.950;18.224;2023-02-18T02:09:58;3.80;;;1.00;;
57325;SDS011;43161;50.950;18.224;2023-02-18T02:18:31;3.80;;;0.70;;
57325;SDS011;43161;50.950;18.224;2023-02-18T02:43:10;6.20;;;1.00;;
57325;SDS011;43161;50.950;18.224;2023-02-18T02:48:21;4.50;;;0.80;;
57325;SDS011;43161;50.950;18.224;2023-02-18T02:50:58;6.20;;;1.10;;
57325;SDS011;43161;50.950;18.224;2023-02-18T02:53:35;5.00;;;0.90;;
57325;SDS011;43161;50.950;18.224;2023-02-18T02:56:01;7.00;;;0.80;;
57325;SDS011;43161;50.950;18.224;2023-02-18T02:58:27;5.10;;;1.00;;
57325;SDS011;43161;50.950;18.224;2023-02-18T03:06:45;5.60;;;1.10;;
57325;SDS011;43161;50.950;18.224;2023-02-18T03:12:06;3.20;;;0.80;;
57325;SDS011;43161;50.950;18.224;2023-02-18T03:14:41;5.50;;;1.10;;
57325;SDS011;43161;50.950;18.224;2023-02-18T03:17:13;3.80;;;0.90;;
57325;SDS011;43161;50.950;18.224;2023-02-18T03:19:48;5.60;;;0.80;;
57325;SDS011;43161;50.950;18.224;2023-02-18T03:22:27;4.20;;;0.80;;
57325;SDS011;43161;50.950;18.224;2023-02-18T03:24:55;6.10;;;0.90;;
57325;SDS011;43161;50.950;18.224;2023-02-18T03:30:13;3.50;;;0.70;;
57325;SDS011;43161;50.950;18.224;2023-02-18T03:32:41;3.40;;;1.00;;
57325;SDS011;43161;50.950;18.224;2023-02-18T03:35:10;4.60;;;0.90;;
57325;SDS011;43161;50.950;18.224;2023-02-18T03:37:41;4.20;;;0.90;;
57325;SDS011;43161;50.950;18.224;2023-02-18T03:40:09;7.60;;;0.80;;
57325;SDS011;43161;50.950;18.224;2023-02-18T03:42:36;6.90;;;1.30;;
57325;SDS011;43161;50.950;18.224;2023-02-18T03:45:02;7.10;;;1.10;;
57325;SDS011;43161;50.950;18.224;2023-02-18T03:47:28;5.10;;;0.90;;
57325;SDS011;43161;50.950;18.224;2023-02-18T03:49:54;6.40;;;1.30;;
57325;SDS011;43161;50.950;18.224;2023-02-18T03:52:20;4.90;;;1.10;;
57325;SDS011;43161;50.950;18.224;2023-02-18T03:54:46;5.30;;;1.10;;
57325;SDS011;43161;50.950;18.224;2023-02-18T03:57:11;5.50;;;1.00;;
57325;SDS011;43161;50.950;18.224;2023-02-18T03:59:37;5.20;;;1.10;;
57325;SDS011;43161;50.950;18.224;2023-02-18T04:02:03;6.10;;;1.00;;
57325;SDS011;43161;50.950;18.224;2023-02-18T04:04:28;6.20;;;1.10;;
57325;SDS011;43161;50.950;18.224;2023-02-18T04:06:54;5.90;;;1.00;;
57325;SDS011;43161;50.950;18.224;2023-02-18T04:09:20;5.40;;;0.90;;
57325;SDS011;43161;50.950;18.224;2023-02-18T04:11:45;6.90;;;0.90;;
57325;SDS011;43161;50.950;18.224;2023-02-18T04:14:12;3.20;;;0.90;;
57325;SDS011;43161;50.950;18.224;2023-02-18T04:16:38;6.60;;;1.00;;
57325;SDS011;43161;50.950;18.224;2023-02-18T04:19:05;4.70;;;0.70;;
57325;SDS011;43161;50.950;18.224;2023-02-18T04:21:31;3.90;;;0.80;;
57325;SDS011;43161;50.950;18.224;2023-02-18T04:23:57;4.10;;;0.80;;
57325;SDS011;43161;50.950;18.224;2023-02-18T04:26:23;4.60;;;1.00;;
57325;SDS011;43161;50.950;18.224;2023-02-18T04:28:48;2.70;;;0.80;;
57325;SDS011;43161;50.950;18.224;2023-02-18T04:31:14;4.40;;;0.60;;
57325;SDS011;43161;50.950;18.224;2023-02-18T04:33:40;3.50;;;0.80;;
57325;SDS011;43161;50.950;18.224;2023-02-18T04:36:05;5.50;;;1.10;;
57325;SDS011;43161;50.950;18.224;2023-02-18T04:38:32;5.80;;;0.90;;
57325;SDS011;43161;50.950;18.224;2023-02-18T04:40:57;4.70;;;0.90;;
57325;SDS011;43161;50.950;18.224;2023-02-18T04:43:23;4.10;;;0.90;;
57325;SDS011;43161;50.950;18.224;2023-02-18T04:45:49;7.80;;;1.20;;
57325;SDS011;43161;50.950;18.224;2023-02-18T04:48:14;3.10;;;0.90;;
57325;SDS011;43161;50.950;18.224;2023-02-18T04:50:40;3.60;;;0.90;;
57325;SDS011;43161;50.950;18.224;2023-02-18T04:53:06;4.30;;;0.90;;
57325;SDS011;43161;50.950;18.224;2023-02-18T04:55:31;4.10;;;0.80;;
57325;SDS011;43161;50.950;18.224;2023-02-18T04:57:57;4.50;;;0.80;;
57325;SDS011;43161;50.950;18.224;2023-02-18T05:00:23;7.60;;;1.00;;
57325;SDS011;43161;50.950;18.224;2023-02-18T05:02:49;3.80;;;0.80;;
57325;SDS011;43161;50.950;18.224;2023-02-18T05:05:15;4.30;;;1.00;;
57325;SDS011;43161;50.950;18.224;2023-02-18T05:07:40;7.50;;;1.10;;
57325;SDS011;43161;50.950;18.224;2023-02-18T05:10:09;6.10;;;1.10;;
57325;SDS011;43161;50.950;18.224;2023-02-18T05:12:36;7.30;;;1.80;;
57325;SDS011;43161;50.950;18.224;2023-02-18T05:15:02;8.50;;;1.80;;
57325;SDS011;43161;50.950;18.224;2023-02-18T05:17:29;14.10;;;4.80;;
57325;SDS011;43161;50.950;18.224;2023-02-18T05:19:54;10.90;;;4.40;;
57325;SDS011;43161;50.950;18.224;2023-02-18T05:22:20;9.10;;;2.90;;
57325;SDS011;43161;50.950;18.224;2023-02-18T05:24:46;20.70;;;8.00;;
57325;SDS011;43161;50.950;18.224;2023-02-18T05:27:11;31.20;;;12.80;;
57325;SDS011;43161;50.950;18.224;2023-02-18T05:29:37;23.40;;;9.00;;
57325;SDS011;43161;50.950;18.224;2023-02-18T05:32:03;42.40;;;22.20;;
57325;SDS011;43161;50.950;18.224;2023-02-18T05:34:29;10.70;;;3.40;;
57325;SDS011;43161;50.950;18.224;2023-02-18T05:36:55;9.30;;;3.00;;
57325;SDS011;43161;50.950;18.224;2023-02-18T05:39:21;6.80;;;2.00;;
57325;SDS011;43161;50.950;18.224;2023-02-18T05:41:46;8.20;;;2.80;;
57325;SDS011;43161;50.950;18.224;2023-02-18T05:44:12;6.30;;;1.80;;
57325;SDS011;43161;50.950;18.224;2023-02-18T05:46:54;6.50;;;2.00;;
57325;SDS011;43161;50.950;18.224;2023-02-18T05:49:19;9.00;;;2.20;;
57325;SDS011;43161;50.950;18.224;2023-02-18T05:51:45;6.50;;;1.40;;
57325;SDS011;43161;50.950;18.224;2023-02-18T05:54:12;5.60;;;1.10;;
57325;SDS011;43161;50.950;18.224;2023-02-18T05:56:38;4.30;;;0.90;;
57325;SDS011;43161;50.950;18.224;2023-02-18T05:59:03;5.90;;;0.80;;
57325;SDS011;43161;50.950;18.224;2023-02-18T06:01:29;4.20;;;0.90;;
57325;SDS011;43161;50.950;18.224;2023-02-18T06:03:55;3.60;;;1.00;;
57325;SDS011;43161;50.950;18.224;2023-02-18T06:06:21;8.10;;;1.20;;
57325;SDS011;43161;50.950;18.224;2023-02-18T06:08:47;4.00;;;1.10;;
57325;SDS011;43161;50.950;18.224;2023-02-18T06:11:13;5.00;;;1.10;;
57325;SDS011;43161;50.950;18.224;2023-02-18T06:13:38;2.90;;;0.80;;
57325;SDS011;43161;50.950;18.224;2023-02-18T06:16:04;4.30;;;1.00;;
57325;SDS011;43161;50.950;18.224;2023-02-18T06:18:30;6.90;;;1.20;;
57325;SDS011;43161;50.950;18.224;2023-02-18T06:20:56;5.70;;;1.00;;
57325;SDS011;43161;50.950;18.224;2023-02-18T06:23:21;4.70;;;0.90;;
57325;SDS011;43161;50.950;18.224;2023-02-18T06:25:47;5.30;;;1.10;;
57325;SDS011;43161;50.950;18.224;2023-02-18T06:28:14;6.70;;;0.80;;
57325;SDS011;43161;50.950;18.224;2023-02-18T06:30:41;4.40;;;0.80;;
57325;SDS011;43161;50.950;18.224;2023-02-18T06:33:06;6.50;;;1.00;;
57325;SDS011;43161;50.950;18.224;2023-02-18T06:35:32;4.90;;;0.80;;
57325;SDS011;43161;50.950;18.224;2023-02-18T06:37:58;4.00;;;0.90;;
57325;SDS011;43161;50.950;18.224;2023-02-18T06:40:24;5.30;;;1.10;;
57325;SDS011;43161;50.950;18.224;2023-02-18T06:42:50;4.70;;;0.70;;
57325;SDS011;43161;50.950;18.224;2023-02-18T06:45:16;5.70;;;1.10;;
57325;SDS011;43161;50.950;18.224;2023-02-18T06:47:41;6.10;;;1.10;;
57325;SDS011;43161;50.950;18.224;2023-02-18T06:50:07;4.00;;;0.80;;
57325;SDS011;43161;50.950;18.224;2023-02-18T06:52:33;4.00;;;0.80;;
57325;SDS011;43161;50.950;18.224;2023-02-18T06:54:59;5.40;;;0.90;;
57325;SDS011;43161;50.950;18.224;2023-02-18T06:57:25;6.50;;;0.80;;
57325;SDS011;43161;50.950;18.224;2023-02-18T06:59:51;5.70;;;0.80;;
57325;SDS011;43161;50.950;18.224;2023-02-18T07:02:17;5.50;;;0.70;;
57325;SDS011;43161;50.950;18.224;2023-02-18T07:04:43;3.00;;;0.70;;
57325;SDS011;43161;50.950;18.224;2023-02-18T07:07:10;5.40;;;0.80;;
57325;SDS011;43161;50.950;18.224;2023-02-18T07:09:36;4.70;;;0.80;;
57325;SDS011;43161;50.950;18.224;2023-02-18T07:12:01;4.20;;;0.90;;
57325;SDS011;43161;50.950;18.224;2023-02-18T07:14:28;5.00;;;0.80;;
57325;SDS011;43161;50.950;18.224;2023-02-18T07:16:53;4.80;;;0.70;;
57325;SDS011;43161;50.950;18.224;2023-02-18T07:19:19;5.40;;;0.90;;
57325;SDS011;43161;50.950;18.224;2023-02-18T07:21:44;8.00;;;1.00;;
57325;SDS011;43161;50.950;18.224;2023-02-18T07:24:11;7.00;;;1.10;;
57325;SDS011;43161;50.950;18.224;2023-02-18T07:26:37;5.20;;;0.70;;
57325;SDS011;43161;50.950;18.224;2023-02-18T07:29:03;4.00;;;1.00;;
57325;SDS011;43161;50.950;18.224;2023-02-18T07:31:28;4.00;;;0.80;;
57325;SDS011;43161;50.950;18.224;2023-02-18T07:33:54;4.60;;;0.70;;
57325;SDS011;43161;50.950;18.224;2023-02-18T07:36:20;3.60;;;0.90;;
57325;SDS011;43161;50.950;18.224;2023-02-18T07:38:45;2.80;;;0.60;;
57325;SDS011;43161;50.950;18.224;2023-02-18T07:41:19;5.30;;;0.80;;
57325;SDS011;43161;50.950;18.224;2023-02-18T07:43:46;3.10;;;0.60;;
57325;SDS011;43161;50.950;18.224;2023-02-18T07:46:13;5.70;;;0.90;;
57325;SDS011;43161;50.950;18.224;2023-02-18T07:48:39;5.40;;;0.90;;
57325;SDS011;43161;50.950;18.224;2023-02-18T07:51:05;4.10;;;0.60;;
57325;SDS011;43161;50.950;18.224;2023-02-18T07:53:32;3.70;;;0.70;;
57325;SDS011;43161;50.950;18.224;2023-02-18T07:55:58;5.50;;;0.80;;
57325;SDS011;43161;50.950;18.224;2023-02-18T07:58:28;4.30;;;0.70;;
57325;SDS011;43161;50.950;18.224;2023-02-18T08:00:55;4.40;;;0.70;;
57325;SDS011;43161;50.950;18.224;2023-02-18T08:03:22;11.40;;;2.00;;
57325;SDS011;43161;50.950;18.224;2023-02-18T08:05:50;3.50;;;0.70;;
57325;SDS011;43161;50.950;18.224;2023-02-18T08:08:18;5.90;;;1.10;;
57325;SDS011;43161;50.950;18.224;2023-02-18T08:10:46;4.30;;;0.90;;
57325;SDS011;43161;50.950;18.224;2023-02-18T08:13:12;4.90;;;0.70;;
57325;SDS011;43161;50.950;18.224;2023-02-18T08:15:38;3.80;;;0.80;;
57325;SDS011;43161;50.950;18.224;2023-02-18T08:18:05;4.90;;;0.90;;
57325;SDS011;43161;50.950;18.224;2023-02-18T08:20:35;5.20;;;0.90;;
57325;SDS011;43161;50.950;18.224;2023-02-18T08:23:05;3.80;;;0.90;;
57325;SDS011;43161;50.950;18.224;2023-02-18T08:25:31;4.20;;;0.80;;
57325;SDS011;43161;50.950;18.224;2023-02-18T08:27:57;5.30;;;0.90;;
57325;SDS011;43161;50.950;18.224;2023-02-18T08:30:23;5.00;;;0.80;;
57325;SDS011;43161;50.950;18.224;2023-02-18T08:32:49;4.10;;;0.70;;
57325;SDS011;43161;50.950;18.224;2023-02-18T08:35:15;4.60;;;0.90;;
57325;SDS011;43161;50.950;18.224;2023-02-18T08:37:41;4.20;;;0.80;;
57325;SDS011;43161;50.950;18.224;2023-02-18T08:40:07;3.40;;;0.80;;
57325;SDS011;43161;50.950;18.224;2023-02-18T08:42:36;3.60;;;0.70;;
57325;SDS011;43161;50.950;18.224;2023-02-18T08:45:02;4.40;;;0.80;;
57325;SDS011;43161;50.950;18.224;2023-02-18T08:47:28;5.30;;;1.00;;
57325;SDS011;43161;50.950;18.224;2023-02-18T08:49:54;5.10;;;1.00;;
57325;SDS011;43161;50.950;18.224;2023-02-18T08:52:20;4.30;;;0.70;;
57325;SDS011;43161;50.950;18.224;2023-02-18T08:54:46;4.00;;;0.90;;
57325;SDS011;43161;50.950;18.224;2023-02-18T08:57:11;4.40;;;0.70;;
57325;SDS011;43161;50.950;18.224;2023-02-18T08:59:37;5.40;;;0.80;;
57325;SDS011;43161;50.950;18.224;2023-02-18T09:02:03;4.20;;;0.70;;
57325;SDS011;43161;50.950;18.224;2023-02-18T09:04:29;4.10;;;0.70;;
57325;SDS011;43161;50.950;18.224;2023-02-18T09:06:55;5.80;;;0.90;;
57325;SDS011;43161;50.950;18.224;2023-02-18T09:09:21;6.60;;;1.00;;
57325;SDS011;43161;50.950;18.224;2023-02-18T09:11:47;6.50;;;0.90;;
57325;SDS011;43161;50.950;18.224;2023-02-18T09:14:13;2.80;;;0.60;;
57325;SDS011;43161;50.950;18.224;2023-02-18T09:16:39;4.60;;;1.10;;
57325;SDS011;43161;50.950;18.224;2023-02-18T09:19:06;4.70;;;0.80;;
57325;SDS011;43161;50.950;18.224;2023-02-18T09:21:32;4.00;;;0.80;;
57325;SDS011;43161;50.950;18.224;2023-02-18T09:23:58;4.10;;;0.80;;
57325;SDS011;43161;50.950;18.224;2023-02-18T09:26:23;4.70;;;1.00;;
57325;SDS011;43161;50.950;18.224;2023-02-18T09:28:51;5.00;;;0.80;;
57325;SDS011;43161;50.950;18.224;2023-02-18T09:31:18;4.20;;;0.90;;
57325;SDS011;43161;50.950;18.224;2023-02-18T09:33:50;4.60;;;1.00;;
57325;SDS011;43161;50.950;18.224;2023-02-18T09:36:21;5.40;;;1.00;;
57325;SDS011;43161;50.950;18.224;2023-02-18T09:38:47;5.10;;;0.90;;
57325;SDS011;43161;50.950;18.224;2023-02-18T09:49:26;4.80;;;0.90;;
57325;SDS011;43161;50.950;18.224;2023-02-18T09:51:54;4.80;;;1.00;;
57325;SDS011;43161;50.950;18.224;2023-02-18T09:54:21;6.10;;;0.90;;
57325;SDS011;43161;50.950;18.224;2023-02-18T09:56:48;5.80;;;1.10;;
57325;SDS011;43161;50.950;18.224;2023-02-18T09:59:18;6.70;;;1.00;;
57325;SDS011;43161;50.950;18.224;2023-02-18T10:01:47;6.00;;;1.00;;
57325;SDS011;43161;50.950;18.224;2023-02-18T10:06:48;6.30;;;1.40;;
57325;SDS011;43161;50.950;18.224;2023-02-18T10:09:20;5.50;;;0.90;;
57325;SDS011;43161;50.950;18.224;2023-02-18T10:11:50;5.20;;;0.90;;
57325;SDS011;43161;50.950;18.224;2023-02-18T10:14:17;4.70;;;1.00;;
57325;SDS011;43161;50.950;18.224;2023-02-18T10:16:43;5.20;;;1.40;;
57325;SDS011;43161;50.950;18.224;2023-02-18T10:21:51;4.30;;;0.90;;
57325;SDS011;43161;50.950;18.224;2023-02-18T10:27:01;5.60;;;1.10;;
57325;SDS011;43161;50.950;18.224;2023-02-18T10:29:30;4.30;;;0.80;;
57325;SDS011;43161;50.950;18.224;2023-02-18T10:51:12;7.10;;;1.30;;
57325;SDS011;43161;50.950;18.224;2023-02-18T10:53:40;6.00;;;1.20;;
57325;SDS011;43161;50.950;18.224;2023-02-18T10:56:07;5.80;;;1.20;;
57325;SDS011;43161;50.950;18.224;2023-02-18T11:01:16;5.50;;;1.20;;
57325;SDS011;43161;50.950;18.224;2023-02-18T11:03:45;6.20;;;1.20;;
57325;SDS011;43161;50.950;18.224;2023-02-18T11:06:19;5.90;;;1.20;;
57325;SDS011;43161;50.950;18.224;2023-02-18T11:08:48;7.60;;;1.10;;
57325;SDS011;43161;50.950;18.224;2023-02-18T11:11:22;7.10;;;1.30;;
57325;SDS011;43161;50.950;18.224;2023-02-18T11:13:57;5.50;;;1.40;;
57325;SDS011;43161;50.950;18.224;2023-02-18T11:22:12;9.10;;;1.50;;
57325;SDS011;43161;50.950;18.224;2023-02-18T11:24:39;9.10;;;2.20;;
57325;SDS011;43161;50.950;18.224;2023-02-18T11:27:09;6.30;;;1.50;;
57325;SDS011;43161;50.950;18.224;2023-02-18T11:29:35;7.80;;;2.00;;
57325;SDS011;43161;50.950;18.224;2023-02-18T11:32:01;8.50;;;1.80;;
57325;SDS011;43161;50.950;18.224;2023-02-18T11:34:28;9.10;;;1.80;;
57325;SDS011;43161;50.950;18.224;2023-02-18T11:36:55;7.80;;;1.60;;
57325;SDS011;43161;50.950;18.224;2023-02-18T11:39:35;10.40;;;2.30;;
57325;SDS011;43161;50.950;18.224;2023-02-18T11:42:02;7.10;;;1.80;;
57325;SDS011;43161;50.950;18.224;2023-02-18T11:49:57;8.00;;;1.50;;
57325;SDS011;43161;50.950;18.224;2023-02-18T11:52:31;9.80;;;1.60;;
57325;SDS011;43161;50.950;18.224;2023-02-18T11:57:28;12.00;;;3.10;;
57325;SDS011;43161;50.950;18.224;2023-02-18T11:59:54;13.60;;;4.50;;
57325;SDS011;43161;50.950;18.224;2023-02-18T12:10:13;13.90;;;6.20;;
57325;SDS011;43161;50.950;18.224;2023-02-18T12:12:43;17.80;;;5.70;;
57325;SDS011;43161;50.950;18.224;2023-02-18T12:15:13;20.40;;;8.40;;
57325;SDS011;43161;50.950;18.224;2023-02-18T12:17:49;15.90;;;5.30;;
57325;SDS011;43161;50.950;18.224;2023-02-18T12:23:14;27.20;;;9.40;;
57325;SDS011;43161;50.950;18.224;2023-02-18T12:36:03;17.60;;;7.90;;
57325;SDS011;43161;50.950;18.224;2023-02-18T12:39:00;25.30;;;10.60;;
57325;SDS011;43161;50.950;18.224;2023-02-18T12:53:07;19.10;;;7.10;;
57325;SDS011;43161;50.950;18.224;2023-02-18T13:01:44;16.70;;;5.80;;
57325;SDS011;43161;50.950;18.224;2023-02-18T13:07:22;18.80;;;8.00;;
57325;SDS011;43161;50.950;18.224;2023-02-18T13:12:38;15.20;;;5.20;;
57325;SDS011;43161;50.950;18.224;2023-02-18T13:15:15;30.00;;;10.50;;
57325;SDS011;43161;50.950;18.224;2023-02-18T13:17:43;16.10;;;7.30;;
57325;SDS011;43161;50.950;18.224;2023-02-18T13:23:02;20.30;;;8.10;;
57325;SDS011;43161;50.950;18.224;2023-02-18T13:25:31;20.50;;;7.90;;
57325;SDS011;43161;50.950;18.224;2023-02-18T13:28:06;19.60;;;7.30;;
57325;SDS011;43161;50.950;18.224;2023-02-18T13:41:12;23.30;;;9.50;;
57325;SDS011;43161;50.950;18.224;2023-02-18T13:43:38;23.60;;;9.90;;
57325;SDS011;43161;50.950;18.224;2023-02-18T13:48:44;27.90;;;13.60;;
57325;SDS011;43161;50.950;18.224;2023-02-18T13:51:11;44.00;;;21.00;;
57325;SDS011;43161;50.950;18.224;2023-02-18T13:53:42;34.60;;;18.30;;
57325;SDS011;43161;50.950;18.224;2023-02-18T13:56:18;38.00;;;19.50;;
57325;SDS011;43161;50.950;18.224;2023-02-18T13:58:53;44.50;;;24.30;;
57325;SDS011;43161;50.950;18.224;2023-02-18T14:01:36;20.70;;;8.90;;
57325;SDS011;43161;50.950;18.224;2023-02-18T14:04:32;24.10;;;11.50;;
57325;SDS011;43161;50.950;18.224;2023-02-18T14:09:50;15.70;;;7.20;;
57325;SDS011;43161;50.950;18.224;2023-02-18T14:12:34;36.80;;;19.70;;
57325;SDS011;43161;50.950;18.224;2023-02-18T14:15:45;60.90;;;28.80;;
57325;SDS011;43161;50.950;18.224;2023-02-18T14:20:47;65.40;;;28.00;;
57325;SDS011;43161;50.950;18.224;2023-02-18T14:25:51;30.00;;;12.70;;
57325;SDS011;43161;50.950;18.224;2023-02-18T14:31:02;62.10;;;26.50;;
57325;SDS011;43161;50.950;18.224;2023-02-18T14:33:33;70.40;;;29.60;;
57325;SDS011;43161;50.950;18.224;2023-02-18T14:39:03;52.20;;;27.70;;
57325;SDS011;43161;50.950;18.224;2023-02-18T14:44:21;44.60;;;20.40;;
57325;SDS011;43161;50.950;18.224;2023-02-18T14:54:53;47.00;;;26.40;;
57325;SDS011;43161;50.950;18.224;2023-02-18T14:57:20;41.80;;;19.80;;
57325;SDS011;43161;50.950;18.224;2023-02-18T15:00:06;31.60;;;17.10;;
57325;SDS011;43161;50.950;18.224;2023-02-18T15:02:42;382.90;;;133.90;;
57325;SDS011;43161;50.950;18.224;2023-02-18T15:05:13;113.10;;;46.40;;
57325;SDS011;43161;50.950;18.224;2023-02-18T15:07:41;23.60;;;12.40;;
57325;SDS011;43161;50.950;18.224;2023-02-18T15:10:14;24.20;;;12.10;;
57325;SDS011;43161;50.950;18.224;2023-02-18T15:12:40;142.80;;;68.30;;
57325;SDS011;43161;50.950;18.224;2023-02-18T15:15:06;82.20;;;35.60;;
57325;SDS011;43161;50.950;18.224;2023-02-18T15:17:34;40.40;;;21.70;;
57325;SDS011;43161;50.950;18.224;2023-02-18T15:20:02;25.60;;;14.30;;
57325;SDS011;43161;50.950;18.224;2023-02-18T15:22:30;38.40;;;22.20;;
57325;SDS011;43161;50.950;18.224;2023-02-18T15:24:58;27.60;;;16.10;;
57325;SDS011;43161;50.950;18.224;2023-02-18T15:27:31;40.30;;;20.40;;
57325;SDS011;43161;50.950;18.224;2023-02-18T15:32:57;31.10;;;18.00;;
57325;SDS011;43161;50.950;18.224;2023-02-18T15:35:25;43.30;;;18.90;;
57325;SDS011;43161;50.950;18.224;2023-02-18T15:37:58;31.40;;;16.20;;
57325;SDS011;43161;50.950;18.224;2023-02-18T15:40:29;32.70;;;20.20;;
57325;SDS011;43161;50.950;18.224;2023-02-18T15:42:57;29.70;;;17.70;;
57325;SDS011;43161;50.950;18.224;2023-02-18T15:45:30;33.30;;;22.20;;
57325;SDS011;43161;50.950;18.224;2023-02-18T15:47:58;35.90;;;18.80;;
57325;SDS011;43161;50.950;18.224;2023-02-18T15:50:28;35.90;;;19.10;;
57325;SDS011;43161;50.950;18.224;2023-02-18T15:52:57;35.50;;;22.30;;
57325;SDS011;43161;50.950;18.224;2023-02-18T15:55:29;60.50;;;39.30;;
57325;SDS011;43161;50.950;18.224;2023-02-18T15:58:00;79.40;;;51.30;;
57325;SDS011;43161;50.950;18.224;2023-02-18T16:03:15;50.10;;;26.40;;
57325;SDS011;43161;50.950;18.224;2023-02-18T16:05:44;45.40;;;27.80;;
57325;SDS011;43161;50.950;18.224;2023-02-18T16:08:14;47.80;;;28.20;;
57325;SDS011;43161;50.950;18.224;2023-02-18T16:10:42;35.40;;;21.20;;
57325;SDS011;43161;50.950;18.224;2023-02-18T16:13:13;32.70;;;17.50;;
57325;SDS011;43161;50.950;18.224;2023-02-18T16:15:41;28.70;;;13.00;;
57325;SDS011;43161;50.950;18.224;2023-02-18T16:21:01;24.30;;;10.90;;
57325;SDS011;43161;50.950;18.224;2023-02-18T16:26:22;25.70;;;12.40;;
57325;SDS011;43161;50.950;18.224;2023-02-18T16:31:10;28.10;;;13.60;;
57325;SDS011;43161;50.950;18.224;2023-02-18T16:33:36;23.40;;;13.30;;
57325;SDS011;43161;50.950;18.224;2023-02-18T16:36:02;26.30;;;15.80;;
57325;SDS011;43161;50.950;18.224;2023-02-18T16:38:28;44.10;;;23.70;;
57325;SDS011;43161;50.950;18.224;2023-02-18T16:40:54;34.80;;;18.20;;
57325;SDS011;43161;50.950;18.224;2023-02-18T16:43:24;23.90;;;16.10;;
57325;SDS011;43161;50.950;18.224;2023-02-18T16:45:52;33.00;;;19.40;;
57325;SDS011;43161;50.950;18.224;2023-02-18T16:50:52;52.10;;;29.10;;
57325;SDS011;43161;50.950;18.224;2023-02-18T16:53:18;35.30;;;18.40;;
57325;SDS011;43161;50.950;18.224;2023-02-18T16:55:44;25.30;;;14.20;;
57325;SDS011;43161;50.950;18.224;2023-02-18T16:58:10;30.80;;;16.40;;
57325;SDS011;43161;50.950;18.224;2023-02-18T17:00:36;20.80;;;10.50;;
57325;SDS011;43161;50.950;18.224;2023-02-18T17:03:02;28.90;;;19.70;;
57325;SDS011;43161;50.950;18.224;2023-02-18T17:05:29;14.70;;;7.00;;
57325;SDS011;43161;50.950;18.224;2023-02-18T17:10:45;13.30;;;6.10;;
57325;SDS011;43161;50.950;18.224;2023-02-18T17:13:16;19.00;;;8.80;;
57325;SDS011;43161;50.950;18.224;2023-02-18T17:15:44;17.30;;;9.40;;
57325;SDS011;43161;50.950;18.224;2023-02-18T17:18:11;16.30;;;6.70;;
57325;SDS011;43161;50.950;18.224;2023-02-18T17:20:37;10.90;;;4.90;;
57325;SDS011;43161;50.950;18.224;2023-02-18T17:23:03;15.20;;;6.40;;
57325;SDS011;43161;50.950;18.224;2023-02-18T17:25:37;12.10;;;4.80;;
57325;SDS011;43161;50.950;18.224;2023-02-18T17:28:04;7.70;;;2.80;;
57325;SDS011;43161;50.950;18.224;2023-02-18T17:30:31;10.50;;;3.70;;
57325;SDS011;43161;50.950;18.224;2023-02-18T17:33:00;15.90;;;6.20;;
57325;SDS011;43161;50.950;18.224;2023-02-18T17:35:30;16.80;;;7.30;;
57325;SDS011;43161;50.950;18.224;2023-02-18T17:37:56;21.40;;;8.20;;
57325;SDS011;43161;50.950;18.224;2023-02-18T17:40:22;20.90;;;8.20;;
57325;SDS011;43161;50.950;18.224;2023-02-18T17:42:50;23.50;;;9.20;;
57325;SDS011;43161;50.950;18.224;2023-02-18T17:45:24;31.60;;;13.00;;
57325;SDS011;43161;50.950;18.224;2023-02-18T17:47:56;30.80;;;13.10;;
57325;SDS011;43161;50.950;18.224;2023-02-18T17:50:23;75.90;;;26.30;;
57325;SDS011;43161;50.950;18.224;2023-02-18T17:52:49;21.20;;;7.30;;